sensor_id;sensor_type;location;lat;lon;timestamp;P1;durP1;ratioP1;P2;durP2;ratioP2
76667;SDS011;65585;51.166;16.922;2023-03-14T00:02:17;5.05;;;3.42;;
76667;SDS011;65585;51.166;16.922;2023-03-14T00:04:53;7.10;;;3.88;;
76667;SDS011;65585;51.166;16.922;2023-03-14T00:07:23;6.13;;;3.88;;
76667;SDS011;65585;51.166;16.922;2023-03-14T00:09:57;6.53;;;3.72;;
76667;SDS011;65585;51.166;16.922;2023-03-14T00:12:45;4.30;;;2.92;;
76667;SDS011;65585;51.166;16.922;2023-03-14T00:15:31;4.03;;;3.10;;
76667;SDS011;65585;51.166;16.922;2023-03-14T00:18:15;5.93;;;3.05;;
76667;SDS011;65585;51.166;16.922;2023-03-14T00:20:58;5.68;;;3.63;;
76667;SDS011;65585;51.166;16.922;2023-03-14T00:23:35;5.70;;;3.28;;
76667;SDS011;65585;51.166;16.922;2023-03-14T00:26:11;7.18;;;3.58;;
76667;SDS011;65585;51.166;16.922;2023-03-14T00:28:44;6.20;;;3.60;;
76667;SDS011;65585;51.166;16.922;2023-03-14T00:31:21;7.30;;;3.60;;
76667;SDS011;65585;51.166;16.922;2023-03-14T00:34:06;8.15;;;3.22;;
76667;SDS011;65585;51.166;16.922;2023-03-14T00:37:17;6.55;;;3.67;;
76667;SDS011;65585;51.166;16.922;2023-03-14T00:45:15;5.35;;;2.97;;
76667;SDS011;65585;51.166;16.922;2023-03-14T00:47:47;6.03;;;2.88;;
76667;SDS011;65585;51.166;16.922;2023-03-14T00:50:25;6.28;;;3.22;;
76667;SDS011;65585;51.166;16.922;2023-03-14T00:56:49;7.30;;;3.50;;
76667;SDS011;65585;51.166;16.922;2023-03-14T00:59:59;5.82;;;3.65;;
76667;SDS011;65585;51.166;16.922;2023-03-14T01:03:25;4.60;;;3.30;;
76667;SDS011;65585;51.166;16.922;2023-03-14T01:06:23;5.45;;;3.50;;
76667;SDS011;65585;51.166;16.922;2023-03-14T01:09:04;5.03;;;3.50;;
76667;SDS011;65585;51.166;16.922;2023-03-14T01:12:28;4.47;;;2.92;;
76667;SDS011;65585;51.166;16.922;2023-03-14T01:15:12;5.47;;;3.97;;
76667;SDS011;65585;51.166;16.922;2023-03-14T01:18:04;5.30;;;3.30;;
76667;SDS011;65585;51.166;16.922;2023-03-14T01:20:48;6.68;;;3.75;;
76667;SDS011;65585;51.166;16.922;2023-03-14T01:23:33;5.85;;;3.70;;
76667;SDS011;65585;51.166;16.922;2023-03-14T01:26:31;5.07;;;3.55;;
76667;SDS011;65585;51.166;16.922;2023-03-14T01:32:21;7.40;;;4.60;;
76667;SDS011;65585;51.166;16.922;2023-03-14T01:35:05;6.68;;;5.05;;
76667;SDS011;65585;51.166;16.922;2023-03-14T01:42:12;9.25;;;4.57;;
76667;SDS011;65585;51.166;16.922;2023-03-14T01:54:43;8.35;;;5.13;;
76667;SDS011;65585;51.166;16.922;2023-03-14T01:57:39;15.52;;;6.88;;
76667;SDS011;65585;51.166;16.922;2023-03-14T02:01:29;8.88;;;5.80;;
76667;SDS011;65585;51.166;16.922;2023-03-14T02:04:13;13.32;;;6.80;;
76667;SDS011;65585;51.166;16.922;2023-03-14T02:06:54;12.50;;;6.22;;
76667;SDS011;65585;51.166;16.922;2023-03-14T02:09:29;8.25;;;5.70;;
76667;SDS011;65585;51.166;16.922;2023-03-14T02:12:14;8.02;;;5.38;;
76667;SDS011;65585;51.166;16.922;2023-03-14T02:14:51;10.77;;;5.10;;
76667;SDS011;65585;51.166;16.922;2023-03-14T02:17:38;8.07;;;5.85;;
76667;SDS011;65585;51.166;16.922;2023-03-14T02:20:26;8.25;;;4.70;;
76667;SDS011;65585;51.166;16.922;2023-03-14T02:23:20;7.18;;;4.57;;
76667;SDS011;65585;51.166;16.922;2023-03-14T02:26:31;6.72;;;4.78;;
76667;SDS011;65585;51.166;16.922;2023-03-14T02:29:45;7.20;;;4.68;;
76667;SDS011;65585;51.166;16.922;2023-03-14T02:32:38;7.78;;;5.00;;
76667;SDS011;65585;51.166;16.922;2023-03-14T02:35:44;9.60;;;4.90;;
76667;SDS011;65585;51.166;16.922;2023-03-14T02:41:33;6.07;;;4.32;;
76667;SDS011;65585;51.166;16.922;2023-03-14T02:44:12;6.63;;;4.57;;
76667;SDS011;65585;51.166;16.922;2023-03-14T02:47:09;6.43;;;4.32;;
76667;SDS011;65585;51.166;16.922;2023-03-14T02:50:10;5.95;;;3.40;;
76667;SDS011;65585;51.166;16.922;2023-03-14T02:52:43;5.88;;;3.92;;
76667;SDS011;65585;51.166;16.922;2023-03-14T02:55:44;4.53;;;3.45;;
76667;SDS011;65585;51.166;16.922;2023-03-14T02:58:42;6.00;;;3.47;;
76667;SDS011;65585;51.166;16.922;2023-03-14T03:01:09;5.55;;;3.85;;
76667;SDS011;65585;51.166;16.922;2023-03-14T03:03:41;5.88;;;3.70;;
76667;SDS011;65585;51.166;16.922;2023-03-14T03:06:40;7.18;;;3.70;;
76667;SDS011;65585;51.166;16.922;2023-03-14T03:09:09;6.70;;;4.28;;
76667;SDS011;65585;51.166;16.922;2023-03-14T03:11:52;7.72;;;3.80;;
76667;SDS011;65585;51.166;16.922;2023-03-14T03:14:26;7.57;;;3.90;;
76667;SDS011;65585;51.166;16.922;2023-03-14T03:17:04;5.50;;;3.90;;
76667;SDS011;65585;51.166;16.922;2023-03-14T03:19:44;6.30;;;3.60;;
76667;SDS011;65585;51.166;16.922;2023-03-14T03:22:33;6.32;;;3.80;;
76667;SDS011;65585;51.166;16.922;2023-03-14T03:34:32;4.43;;;3.05;;
76667;SDS011;65585;51.166;16.922;2023-03-14T03:39:43;5.55;;;3.85;;
76667;SDS011;65585;51.166;16.922;2023-03-14T03:42:17;5.97;;;3.70;;
76667;SDS011;65585;51.166;16.922;2023-03-14T03:44:47;5.55;;;3.72;;
76667;SDS011;65585;51.166;16.922;2023-03-14T03:47:41;6.55;;;3.30;;
76667;SDS011;65585;51.166;16.922;2023-03-14T03:50:28;5.47;;;3.67;;
76667;SDS011;65585;51.166;16.922;2023-03-14T03:53:07;5.43;;;3.60;;
76667;SDS011;65585;51.166;16.922;2023-03-14T03:55:40;5.32;;;3.97;;
76667;SDS011;65585;51.166;16.922;2023-03-14T03:58:18;4.50;;;3.28;;
76667;SDS011;65585;51.166;16.922;2023-03-14T04:01:10;6.18;;;3.50;;
76667;SDS011;65585;51.166;16.922;2023-03-14T04:03:47;6.63;;;3.85;;
76667;SDS011;65585;51.166;16.922;2023-03-14T04:06:28;7.68;;;3.90;;
76667;SDS011;65585;51.166;16.922;2023-03-14T04:09:07;7.32;;;3.78;;
76667;SDS011;65585;51.166;16.922;2023-03-14T04:11:40;6.07;;;3.60;;
76667;SDS011;65585;51.166;16.922;2023-03-14T04:14:13;7.45;;;3.55;;
76667;SDS011;65585;51.166;16.922;2023-03-14T04:16:42;5.57;;;3.65;;
76667;SDS011;65585;51.166;16.922;2023-03-14T04:19:20;5.72;;;3.25;;
76667;SDS011;65585;51.166;16.922;2023-03-14T04:21:50;4.95;;;3.22;;
76667;SDS011;65585;51.166;16.922;2023-03-14T04:24:21;6.93;;;3.50;;
76667;SDS011;65585;51.166;16.922;2023-03-14T04:26:51;4.97;;;3.40;;
76667;SDS011;65585;51.166;16.922;2023-03-14T04:29:28;7.65;;;3.45;;
76667;SDS011;65585;51.166;16.922;2023-03-14T04:32:10;5.75;;;3.30;;
76667;SDS011;65585;51.166;16.922;2023-03-14T04:34:51;5.45;;;3.30;;
76667;SDS011;65585;51.166;16.922;2023-03-14T04:40:01;7.47;;;3.22;;
76667;SDS011;65585;51.166;16.922;2023-03-14T04:42:45;4.38;;;3.13;;
76667;SDS011;65585;51.166;16.922;2023-03-14T04:45:41;5.57;;;3.28;;
76667;SDS011;65585;51.166;16.922;2023-03-14T04:48:11;5.68;;;3.50;;
76667;SDS011;65585;51.166;16.922;2023-03-14T04:50:58;5.70;;;3.13;;
76667;SDS011;65585;51.166;16.922;2023-03-14T04:53:33;6.30;;;3.28;;
76667;SDS011;65585;51.166;16.922;2023-03-14T04:56:05;4.68;;;3.22;;
76667;SDS011;65585;51.166;16.922;2023-03-14T04:58:35;5.68;;;3.67;;
76667;SDS011;65585;51.166;16.922;2023-03-14T05:01:16;4.47;;;2.88;;
76667;SDS011;65585;51.166;16.922;2023-03-14T05:03:53;6.10;;;3.42;;
76667;SDS011;65585;51.166;16.922;2023-03-14T05:06:31;4.60;;;3.05;;
76667;SDS011;65585;51.166;16.922;2023-03-14T05:09:13;6.10;;;3.35;;
76667;SDS011;65585;51.166;16.922;2023-03-14T05:12:05;4.82;;;3.30;;
76667;SDS011;65585;51.166;16.922;2023-03-14T05:14:43;5.10;;;3.17;;
76667;SDS011;65585;51.166;16.922;2023-03-14T05:17:20;5.57;;;2.85;;
76667;SDS011;65585;51.166;16.922;2023-03-14T05:20:02;3.88;;;3.08;;
76667;SDS011;65585;51.166;16.922;2023-03-14T05:22:42;6.05;;;3.42;;
76667;SDS011;65585;51.166;16.922;2023-03-14T05:25:11;5.63;;;3.47;;
76667;SDS011;65585;51.166;16.922;2023-03-14T05:27:41;6.10;;;3.90;;
76667;SDS011;65585;51.166;16.922;2023-03-14T05:30:17;6.05;;;3.60;;
76667;SDS011;65585;51.166;16.922;2023-03-14T05:33:09;5.78;;;3.40;;
76667;SDS011;65585;51.166;16.922;2023-03-14T05:35:57;6.75;;;4.05;;
76667;SDS011;65585;51.166;16.922;2023-03-14T05:38:57;7.40;;;3.95;;
76667;SDS011;65585;51.166;16.922;2023-03-14T05:41:32;6.25;;;3.80;;
76667;SDS011;65585;51.166;16.922;2023-03-14T05:44:19;5.32;;;3.50;;
76667;SDS011;65585;51.166;16.922;2023-03-14T05:47:02;7.07;;;3.83;;
76667;SDS011;65585;51.166;16.922;2023-03-14T05:52:56;6.20;;;3.70;;
76667;SDS011;65585;51.166;16.922;2023-03-14T05:58:25;5.80;;;3.75;;
76667;SDS011;65585;51.166;16.922;2023-03-14T06:01:07;7.60;;;3.95;;
76667;SDS011;65585;51.166;16.922;2023-03-14T06:03:39;7.03;;;3.97;;
76667;SDS011;65585;51.166;16.922;2023-03-14T06:06:14;4.90;;;3.60;;
76667;SDS011;65585;51.166;16.922;2023-03-14T06:08:45;6.75;;;4.25;;
76667;SDS011;65585;51.166;16.922;2023-03-14T06:11:20;6.13;;;3.90;;
76667;SDS011;65585;51.166;16.922;2023-03-14T06:13:46;7.07;;;3.83;;
76667;SDS011;65585;51.166;16.922;2023-03-14T06:16:20;5.97;;;4.22;;
76667;SDS011;65585;51.166;16.922;2023-03-14T06:18:46;11.38;;;4.35;;
76667;SDS011;65585;51.166;16.922;2023-03-14T06:21:19;8.82;;;3.78;;
76667;SDS011;65585;51.166;16.922;2023-03-14T06:23:58;7.50;;;4.40;;
76667;SDS011;65585;51.166;16.922;2023-03-14T06:26:28;6.38;;;3.80;;
76667;SDS011;65585;51.166;16.922;2023-03-14T06:28:54;5.00;;;3.75;;
76667;SDS011;65585;51.166;16.922;2023-03-14T06:31:35;8.20;;;4.35;;
76667;SDS011;65585;51.166;16.922;2023-03-14T06:37:29;6.97;;;4.35;;
76667;SDS011;65585;51.166;16.922;2023-03-14T06:40:09;7.47;;;4.10;;
76667;SDS011;65585;51.166;16.922;2023-03-14T06:42:48;5.07;;;3.80;;
76667;SDS011;65585;51.166;16.922;2023-03-14T06:46:04;5.80;;;3.65;;
76667;SDS011;65585;51.166;16.922;2023-03-14T06:48:47;6.18;;;4.13;;
76667;SDS011;65585;51.166;16.922;2023-03-14T06:51:49;6.25;;;3.95;;
76667;SDS011;65585;51.166;16.922;2023-03-14T06:54:35;5.43;;;4.13;;
76667;SDS011;65585;51.166;16.922;2023-03-14T06:57:31;6.25;;;3.85;;
76667;SDS011;65585;51.166;16.922;2023-03-14T07:03:58;6.90;;;3.72;;
76667;SDS011;65585;51.166;16.922;2023-03-14T07:10:22;9.82;;;6.22;;
76667;SDS011;65585;51.166;16.922;2023-03-14T07:13:02;10.85;;;6.45;;
76667;SDS011;65585;51.166;16.922;2023-03-14T07:15:42;10.38;;;5.60;;
76667;SDS011;65585;51.166;16.922;2023-03-14T07:18:11;8.60;;;4.55;;
76667;SDS011;65585;51.166;16.922;2023-03-14T07:20:41;5.65;;;4.28;;
76667;SDS011;65585;51.166;16.922;2023-03-14T07:23:23;7.28;;;4.28;;
76667;SDS011;65585;51.166;16.922;2023-03-14T07:25:52;7.05;;;3.97;;
76667;SDS011;65585;51.166;16.922;2023-03-14T07:28:36;5.63;;;3.95;;
76667;SDS011;65585;51.166;16.922;2023-03-14T07:31:18;7.50;;;4.65;;
76667;SDS011;65585;51.166;16.922;2023-03-14T07:33:57;6.70;;;4.22;;
76667;SDS011;65585;51.166;16.922;2023-03-14T07:36:34;6.18;;;4.25;;
76667;SDS011;65585;51.166;16.922;2023-03-14T07:39:07;5.78;;;3.67;;
76667;SDS011;65585;51.166;16.922;2023-03-14T07:41:37;6.22;;;3.53;;
76667;SDS011;65585;51.166;16.922;2023-03-14T07:44:12;7.15;;;3.58;;
76667;SDS011;65585;51.166;16.922;2023-03-14T07:49:10;5.20;;;3.53;;
76667;SDS011;65585;51.166;16.922;2023-03-14T07:51:36;6.78;;;3.60;;
76667;SDS011;65585;51.166;16.922;2023-03-14T07:54:03;7.28;;;4.00;;
76667;SDS011;65585;51.166;16.922;2023-03-14T07:56:37;6.10;;;3.40;;
76667;SDS011;65585;51.166;16.922;2023-03-14T07:59:07;6.18;;;3.67;;
76667;SDS011;65585;51.166;16.922;2023-03-14T08:01:52;7.63;;;4.00;;
76667;SDS011;65585;51.166;16.922;2023-03-14T08:04:29;7.20;;;4.80;;
76667;SDS011;65585;51.166;16.922;2023-03-14T08:06:58;9.43;;;4.38;;
76667;SDS011;65585;51.166;16.922;2023-03-14T08:09:28;7.18;;;4.05;;
76667;SDS011;65585;51.166;16.922;2023-03-14T08:12:04;5.68;;;3.65;;
76667;SDS011;65585;51.166;16.922;2023-03-14T08:14:51;8.75;;;3.90;;
76667;SDS011;65585;51.166;16.922;2023-03-14T08:17:22;7.30;;;3.60;;
76667;SDS011;65585;51.166;16.922;2023-03-14T08:20:05;7.82;;;3.30;;
76667;SDS011;65585;51.166;16.922;2023-03-14T08:22:37;5.57;;;3.70;;
76667;SDS011;65585;51.166;16.922;2023-03-14T08:25:04;6.57;;;3.42;;
76667;SDS011;65585;51.166;16.922;2023-03-14T08:27:33;8.95;;;3.42;;
76667;SDS011;65585;51.166;16.922;2023-03-14T08:30:00;4.07;;;3.40;;
76667;SDS011;65585;51.166;16.922;2023-03-14T08:32:26;7.07;;;3.65;;
76667;SDS011;65585;51.166;16.922;2023-03-14T08:34:56;5.55;;;3.65;;
76667;SDS011;65585;51.166;16.922;2023-03-14T08:37:22;7.03;;;3.38;;
76667;SDS011;65585;51.166;16.922;2023-03-14T08:42:22;5.47;;;3.50;;
76667;SDS011;65585;51.166;16.922;2023-03-14T08:44:50;4.22;;;3.50;;
76667;SDS011;65585;51.166;16.922;2023-03-14T08:47:22;7.43;;;3.42;;
76667;SDS011;65585;51.166;16.922;2023-03-14T08:52:57;5.47;;;3.40;;
76667;SDS011;65585;51.166;16.922;2023-03-14T08:55:29;6.75;;;3.72;;
76667;SDS011;65585;51.166;16.922;2023-03-14T08:58:16;5.55;;;3.22;;
76667;SDS011;65585;51.166;16.922;2023-03-14T09:00:42;6.85;;;3.42;;
76667;SDS011;65585;51.166;16.922;2023-03-14T09:03:08;5.82;;;3.50;;
76667;SDS011;65585;51.166;16.922;2023-03-14T09:05:34;7.75;;;3.80;;
76667;SDS011;65585;51.166;16.922;2023-03-14T09:08:00;6.47;;;3.53;;
76667;SDS011;65585;51.166;16.922;2023-03-14T09:10:26;6.07;;;3.95;;
76667;SDS011;65585;51.166;16.922;2023-03-14T09:12:52;7.60;;;3.80;;
76667;SDS011;65585;51.166;16.922;2023-03-14T09:23:04;8.82;;;4.20;;
76667;SDS011;65585;51.166;16.922;2023-03-14T09:25:31;7.18;;;3.30;;
76667;SDS011;65585;51.166;16.922;2023-03-14T09:27:56;6.53;;;3.90;;
76667;SDS011;65585;51.166;16.922;2023-03-14T09:30:23;4.72;;;3.60;;
76667;SDS011;65585;51.166;16.922;2023-03-14T09:32:49;6.30;;;3.25;;
76667;SDS011;65585;51.166;16.922;2023-03-14T09:35:15;5.32;;;3.13;;
76667;SDS011;65585;51.166;16.922;2023-03-14T09:37:41;6.00;;;3.60;;
76667;SDS011;65585;51.166;16.922;2023-03-14T09:40:11;5.82;;;3.20;;
76667;SDS011;65585;51.166;16.922;2023-03-14T09:42:39;7.97;;;3.65;;
76667;SDS011;65585;51.166;16.922;2023-03-14T09:45:07;5.18;;;3.38;;
76667;SDS011;65585;51.166;16.922;2023-03-14T09:47:37;8.07;;;3.40;;
76667;SDS011;65585;51.166;16.922;2023-03-14T09:50:05;6.07;;;3.47;;
76667;SDS011;65585;51.166;16.922;2023-03-14T10:00:25;7.63;;;3.90;;
76667;SDS011;65585;51.166;16.922;2023-03-14T10:02:53;7.40;;;3.53;;
76667;SDS011;65585;51.166;16.922;2023-03-14T10:05:27;6.63;;;3.88;;
76667;SDS011;65585;51.166;16.922;2023-03-14T10:10:22;9.45;;;3.70;;
76667;SDS011;65585;51.166;16.922;2023-03-14T10:13:00;5.38;;;3.97;;
76667;SDS011;65585;51.166;16.922;2023-03-14T10:15:36;5.60;;;3.53;;
76667;SDS011;65585;51.166;16.922;2023-03-14T10:18:04;6.15;;;3.85;;
76667;SDS011;65585;51.166;16.922;2023-03-14T10:20:38;4.82;;;3.45;;
76667;SDS011;65585;51.166;16.922;2023-03-14T10:25:44;5.90;;;3.40;;
76667;SDS011;65585;51.166;16.922;2023-03-14T10:42:34;6.80;;;3.55;;
76667;SDS011;65585;51.166;16.922;2023-03-14T11:11:43;6.30;;;3.00;;
76667;SDS011;65585;51.166;16.922;2023-03-14T11:33:16;5.35;;;3.33;;
76667;SDS011;65585;51.166;16.922;2023-03-14T11:36:03;5.13;;;2.83;;
76667;SDS011;65585;51.166;16.922;2023-03-14T11:41:01;5.75;;;3.13;;
76667;SDS011;65585;51.166;16.922;2023-03-14T11:46:45;6.22;;;3.25;;
76667;SDS011;65585;51.166;16.922;2023-03-14T12:07:32;5.63;;;3.75;;
76667;SDS011;65585;51.166;16.922;2023-03-14T12:10:03;7.40;;;3.40;;
76667;SDS011;65585;51.166;16.922;2023-03-14T12:12:29;5.07;;;3.40;;
76667;SDS011;65585;51.166;16.922;2023-03-14T12:14:57;4.68;;;3.05;;
76667;SDS011;65585;51.166;16.922;2023-03-14T12:30:24;6.53;;;3.42;;
76667;SDS011;65585;51.166;16.922;2023-03-14T12:35:42;3.67;;;2.60;;
76667;SDS011;65585;51.166;16.922;2023-03-14T12:46:53;7.68;;;3.35;;
76667;SDS011;65585;51.166;16.922;2023-03-14T12:53:32;6.60;;;3.45;;
76667;SDS011;65585;51.166;16.922;2023-03-14T12:59:57;7.00;;;3.88;;
76667;SDS011;65585;51.166;16.922;2023-03-14T13:02:59;6.57;;;3.90;;
76667;SDS011;65585;51.166;16.922;2023-03-14T13:12:49;6.97;;;4.43;;
76667;SDS011;65585;51.166;16.922;2023-03-14T13:15:18;9.05;;;4.57;;
76667;SDS011;65585;51.166;16.922;2023-03-14T13:27:21;6.60;;;4.32;;
76667;SDS011;65585;51.166;16.922;2023-03-14T13:29:50;6.78;;;4.22;;
76667;SDS011;65585;51.166;16.922;2023-03-14T13:32:17;7.78;;;4.53;;
76667;SDS011;65585;51.166;16.922;2023-03-14T13:34:46;4.80;;;3.80;;
76667;SDS011;65585;51.166;16.922;2023-03-14T13:37:19;6.93;;;3.83;;
76667;SDS011;65585;51.166;16.922;2023-03-14T13:39:50;4.68;;;3.28;;
76667;SDS011;65585;51.166;16.922;2023-03-14T13:42:18;5.68;;;3.55;;
76667;SDS011;65585;51.166;16.922;2023-03-14T13:44:44;6.95;;;3.75;;
76667;SDS011;65585;51.166;16.922;2023-03-14T13:49:42;5.97;;;3.13;;
76667;SDS011;65585;51.166;16.922;2023-03-14T13:54:54;4.78;;;2.92;;
76667;SDS011;65585;51.166;16.922;2023-03-14T14:00:58;6.88;;;3.40;;
76667;SDS011;65585;51.166;16.922;2023-03-14T14:03:37;5.38;;;3.10;;
76667;SDS011;65585;51.166;16.922;2023-03-14T14:06:06;4.45;;;3.10;;
76667;SDS011;65585;51.166;16.922;2023-03-14T14:08:54;3.90;;;3.00;;
76667;SDS011;65585;51.166;16.922;2023-03-14T14:11:31;5.28;;;2.88;;
76667;SDS011;65585;51.166;16.922;2023-03-14T14:14:04;6.70;;;2.95;;
76667;SDS011;65585;51.166;16.922;2023-03-14T14:16:31;4.85;;;3.00;;
76667;SDS011;65585;51.166;16.922;2023-03-14T14:18:58;6.25;;;2.90;;
76667;SDS011;65585;51.166;16.922;2023-03-14T14:31:40;9.25;;;4.72;;
76667;SDS011;65585;51.166;16.922;2023-03-14T14:34:17;11.73;;;6.60;;
76667;SDS011;65585;51.166;16.922;2023-03-14T14:36:45;9.57;;;5.50;;
76667;SDS011;65585;51.166;16.922;2023-03-14T14:41:59;7.32;;;4.40;;
76667;SDS011;65585;51.166;16.922;2023-03-14T14:44:29;9.75;;;4.20;;
76667;SDS011;65585;51.166;16.922;2023-03-14T14:46:57;7.47;;;4.60;;
76667;SDS011;65585;51.166;16.922;2023-03-14T14:49:29;6.97;;;4.18;;
76667;SDS011;65585;51.166;16.922;2023-03-14T14:52:00;7.25;;;4.43;;
76667;SDS011;65585;51.166;16.922;2023-03-14T14:54:40;8.88;;;4.68;;
76667;SDS011;65585;51.166;16.922;2023-03-14T15:07:32;11.27;;;5.03;;
76667;SDS011;65585;51.166;16.922;2023-03-14T15:09:59;9.30;;;4.60;;
76667;SDS011;65585;51.166;16.922;2023-03-14T15:12:25;8.25;;;5.20;;
76667;SDS011;65585;51.166;16.922;2023-03-14T15:14:51;10.57;;;5.38;;
76667;SDS011;65585;51.166;16.922;2023-03-14T15:17:17;8.63;;;4.60;;
76667;SDS011;65585;51.166;16.922;2023-03-14T15:19:43;7.22;;;3.97;;
76667;SDS011;65585;51.166;16.922;2023-03-14T15:22:11;7.15;;;3.92;;
76667;SDS011;65585;51.166;16.922;2023-03-14T15:24:39;5.35;;;3.53;;
76667;SDS011;65585;51.166;16.922;2023-03-14T15:27:09;5.30;;;3.13;;
76667;SDS011;65585;51.166;16.922;2023-03-14T15:29:39;5.30;;;3.03;;
76667;SDS011;65585;51.166;16.922;2023-03-14T15:32:05;3.95;;;2.40;;
76667;SDS011;65585;51.166;16.922;2023-03-14T15:42:23;5.00;;;2.53;;
76667;SDS011;65585;51.166;16.922;2023-03-14T15:44:50;4.82;;;2.85;;
76667;SDS011;65585;51.166;16.922;2023-03-14T15:47:16;4.85;;;3.22;;
76667;SDS011;65585;51.166;16.922;2023-03-14T15:49:43;5.03;;;2.95;;
76667;SDS011;65585;51.166;16.922;2023-03-14T15:52:09;8.27;;;3.70;;
76667;SDS011;65585;51.166;16.922;2023-03-14T15:54:36;5.45;;;3.65;;
76667;SDS011;65585;51.166;16.922;2023-03-14T15:57:02;7.40;;;3.40;;
76667;SDS011;65585;51.166;16.922;2023-03-14T15:59:28;7.05;;;3.35;;
76667;SDS011;65585;51.166;16.922;2023-03-14T16:01:54;5.15;;;3.53;;
76667;SDS011;65585;51.166;16.922;2023-03-14T16:04:21;5.60;;;3.72;;
76667;SDS011;65585;51.166;16.922;2023-03-14T16:06:47;8.25;;;3.75;;
76667;SDS011;65585;51.166;16.922;2023-03-14T16:09:13;6.95;;;3.58;;
76667;SDS011;65585;51.166;16.922;2023-03-14T16:19:25;5.93;;;3.20;;
76667;SDS011;65585;51.166;16.922;2023-03-14T16:21:52;6.70;;;3.50;;
76667;SDS011;65585;51.166;16.922;2023-03-14T16:24:18;6.03;;;3.33;;
76667;SDS011;65585;51.166;16.922;2023-03-14T16:26:45;7.05;;;3.53;;
76667;SDS011;65585;51.166;16.922;2023-03-14T16:31:39;6.38;;;4.22;;
76667;SDS011;65585;51.166;16.922;2023-03-14T16:34:10;7.22;;;4.35;;
76667;SDS011;65585;51.166;16.922;2023-03-14T16:36:37;13.73;;;4.60;;
76667;SDS011;65585;51.166;16.922;2023-03-14T16:39:03;5.03;;;3.70;;
76667;SDS011;65585;51.166;16.922;2023-03-14T16:41:30;7.90;;;4.03;;
76667;SDS011;65585;51.166;16.922;2023-03-14T16:43:57;6.35;;;3.95;;
76667;SDS011;65585;51.166;16.922;2023-03-14T16:46:24;6.45;;;3.35;;
76667;SDS011;65585;51.166;16.922;2023-03-14T16:56:37;7.07;;;4.70;;
76667;SDS011;65585;51.166;16.922;2023-03-14T16:59:03;10.18;;;4.85;;
76667;SDS011;65585;51.166;16.922;2023-03-14T17:01:29;8.10;;;4.55;;
76667;SDS011;65585;51.166;16.922;2023-03-14T17:03:55;7.65;;;4.80;;
76667;SDS011;65585;51.166;16.922;2023-03-14T17:06:22;7.63;;;4.93;;
76667;SDS011;65585;51.166;16.922;2023-03-14T17:08:51;9.32;;;5.97;;
76667;SDS011;65585;51.166;16.922;2023-03-14T17:11:18;11.95;;;6.90;;
76667;SDS011;65585;51.166;16.922;2023-03-14T17:13:44;9.02;;;4.78;;
76667;SDS011;65585;51.166;16.922;2023-03-14T17:16:10;9.18;;;4.72;;
76667;SDS011;65585;51.166;16.922;2023-03-14T17:18:37;8.70;;;5.30;;
76667;SDS011;65585;51.166;16.922;2023-03-14T17:21:03;9.25;;;5.13;;
76667;SDS011;65585;51.166;16.922;2023-03-14T17:31:33;6.93;;;3.70;;
76667;SDS011;65585;51.166;16.922;2023-03-14T17:34:00;5.10;;;3.13;;
76667;SDS011;65585;51.166;16.922;2023-03-14T17:36:26;5.53;;;3.22;;
76667;SDS011;65585;51.166;16.922;2023-03-14T17:38:55;3.72;;;3.10;;
76667;SDS011;65585;51.166;16.922;2023-03-14T17:41:22;7.80;;;3.90;;
76667;SDS011;65585;51.166;16.922;2023-03-14T17:43:48;6.25;;;4.03;;
76667;SDS011;65585;51.166;16.922;2023-03-14T17:46:14;12.43;;;6.45;;
76667;SDS011;65585;51.166;16.922;2023-03-14T17:48:43;11.40;;;8.77;;
76667;SDS011;65585;51.166;16.922;2023-03-14T17:51:10;11.70;;;6.57;;
76667;SDS011;65585;51.166;16.922;2023-03-14T17:53:37;4.80;;;3.90;;
76667;SDS011;65585;51.166;16.922;2023-03-14T17:56:03;7.57;;;3.70;;
76667;SDS011;65585;51.166;16.922;2023-03-14T17:58:30;5.22;;;3.33;;
76667;SDS011;65585;51.166;16.922;2023-03-14T18:01:06;4.95;;;3.00;;
76667;SDS011;65585;51.166;16.922;2023-03-14T18:03:37;5.18;;;3.40;;
76667;SDS011;65585;51.166;16.922;2023-03-14T18:06:04;7.03;;;3.58;;
76667;SDS011;65585;51.166;16.922;2023-03-14T18:16:18;7.20;;;3.95;;
76667;SDS011;65585;51.166;16.922;2023-03-14T18:18:45;7.85;;;3.88;;
76667;SDS011;65585;51.166;16.922;2023-03-14T18:21:14;7.22;;;3.90;;
76667;SDS011;65585;51.166;16.922;2023-03-14T18:23:42;7.82;;;4.45;;
76667;SDS011;65585;51.166;16.922;2023-03-14T18:26:08;5.47;;;3.97;;
76667;SDS011;65585;51.166;16.922;2023-03-14T18:28:34;6.10;;;3.38;;
76667;SDS011;65585;51.166;16.922;2023-03-14T18:31:10;5.28;;;3.50;;
76667;SDS011;65585;51.166;16.922;2023-03-14T18:33:38;6.75;;;3.95;;
76667;SDS011;65585;51.166;16.922;2023-03-14T18:36:09;5.72;;;3.75;;
76667;SDS011;65585;51.166;16.922;2023-03-14T18:38:36;6.55;;;3.90;;
76667;SDS011;65585;51.166;16.922;2023-03-14T18:41:13;7.13;;;4.80;;
76667;SDS011;65585;51.166;16.922;2023-03-14T18:51:47;8.35;;;4.45;;
76667;SDS011;65585;51.166;16.922;2023-03-14T18:54:14;7.63;;;3.90;;
76667;SDS011;65585;51.166;16.922;2023-03-14T18:56:40;9.23;;;4.50;;
76667;SDS011;65585;51.166;16.922;2023-03-14T18:59:06;7.60;;;4.03;;
76667;SDS011;65585;51.166;16.922;2023-03-14T19:01:34;6.95;;;4.00;;
76667;SDS011;65585;51.166;16.922;2023-03-14T19:04:01;9.35;;;5.68;;
76667;SDS011;65585;51.166;16.922;2023-03-14T19:06:28;8.05;;;4.40;;
76667;SDS011;65585;51.166;16.922;2023-03-14T19:08:57;9.82;;;5.22;;
76667;SDS011;65585;51.166;16.922;2023-03-14T19:11:23;7.57;;;4.30;;
76667;SDS011;65585;51.166;16.922;2023-03-14T19:16:18;9.05;;;4.97;;
76667;SDS011;65585;51.166;16.922;2023-03-14T19:18:47;7.70;;;3.85;;
76667;SDS011;65585;51.166;16.922;2023-03-14T19:21:13;8.15;;;3.78;;
76667;SDS011;65585;51.166;16.922;2023-03-14T19:34:01;8.15;;;4.75;;
76667;SDS011;65585;51.166;16.922;2023-03-14T19:36:28;10.77;;;5.07;;
76667;SDS011;65585;51.166;16.922;2023-03-14T19:38:55;7.93;;;5.22;;
76667;SDS011;65585;51.166;16.922;2023-03-14T19:41:23;6.03;;;4.22;;
76667;SDS011;65585;51.166;16.922;2023-03-14T19:43:50;8.05;;;4.22;;
76667;SDS011;65585;51.166;16.922;2023-03-14T19:46:17;6.00;;;3.50;;
76667;SDS011;65585;51.166;16.922;2023-03-14T19:48:43;5.07;;;2.30;;
76667;SDS011;65585;51.166;16.922;2023-03-14T19:51:13;2.22;;;1.67;;
76667;SDS011;65585;51.166;16.922;2023-03-14T19:53:41;2.65;;;1.80;;
76667;SDS011;65585;51.166;16.922;2023-03-14T19:56:08;5.88;;;2.10;;
76667;SDS011;65585;51.166;16.922;2023-03-14T19:58:36;4.03;;;1.80;;
76667;SDS011;65585;51.166;16.922;2023-03-14T20:01:03;3.03;;;1.42;;
76667;SDS011;65585;51.166;16.922;2023-03-14T20:03:30;2.85;;;1.60;;
76667;SDS011;65585;51.166;16.922;2023-03-14T20:13:42;1.20;;;0.90;;
76667;SDS011;65585;51.166;16.922;2023-03-14T20:16:09;1.15;;;0.85;;
76667;SDS011;65585;51.166;16.922;2023-03-14T20:18:35;1.90;;;1.15;;
76667;SDS011;65585;51.166;16.922;2023-03-14T20:21:08;2.45;;;1.48;;
76667;SDS011;65585;51.166;16.922;2023-03-14T20:23:37;0.75;;;0.73;;
76667;SDS011;65585;51.166;16.922;2023-03-14T20:26:04;0.85;;;0.40;;
76667;SDS011;65585;51.166;16.922;2023-03-14T20:28:30;0.93;;;0.90;;
76667;SDS011;65585;51.166;16.922;2023-03-14T20:30:56;1.60;;;0.93;;
76667;SDS011;65585;51.166;16.922;2023-03-14T20:33:23;2.00;;;1.02;;
76667;SDS011;65585;51.166;16.922;2023-03-14T20:35:56;1.60;;;1.17;;
76667;SDS011;65585;51.166;16.922;2023-03-14T20:40:52;1.80;;;1.52;;
76667;SDS011;65585;51.166;16.922;2023-03-14T20:53:42;1.77;;;1.40;;
76667;SDS011;65585;51.166;16.922;2023-03-14T20:56:10;1.42;;;1.10;;